sensor_id;sensor_type;location;lat;lon;timestamp;pressure;altitude;pressure_sealevel;temperature;humidity
4972;BME280;2501;51.214;6.768;2022-08-21T00:02:14;101198.72;;;19.71;100.00
4972;BME280;2501;51.214;6.768;2022-08-21T00:04:43;101201.53;;;19.71;100.00
4972;BME280;2501;51.214;6.768;2022-08-21T00:07:14;101193.91;;;19.71;100.00
4972;BME280;2501;51.214;6.768;2022-08-21T00:09:43;101193.38;;;19.76;100.00
4972;BME280;2501;51.214;6.768;2022-08-21T00:12:11;101190.03;;;19.81;100.00
4972;BME280;2501;51.214;6.768;2022-08-21T00:14:40;101186.34;;;19.84;100.00
4972;BME280;2501;51.214;6.768;2022-08-21T00:17:09;101193.72;;;19.78;100.00
4972;BME280;2501;51.214;6.768;2022-08-21T00:19:37;101184.41;;;19.81;100.00
4972;BME280;2501;51.214;6.768;2022-08-21T00:22:06;101182.84;;;19.80;100.00
4972;BME280;2501;51.214;6.768;2022-08-21T00:24:37;101178.34;;;19.67;100.00
4972;BME280;2501;51.214;6.768;2022-08-21T00:27:05;101173.25;;;19.62;100.00
4972;BME280;2501;51.214;6.768;2022-08-21T00:29:34;101166.91;;;19.58;100.00
4972;BME280;2501;51.214;6.768;2022-08-21T00:32:03;101158.66;;;19.51;100.00
4972;BME280;2501;51.214;6.768;2022-08-21T00:34:31;101166.13;;;19.37;100.00
4972;BME280;2501;51.214;6.768;2022-08-21T00:37:00;101162.19;;;19.35;100.00
4972;BME280;2501;51.214;6.768;2022-08-21T00:39:28;101161.06;;;19.32;100.00
4972;BME280;2501;51.214;6.768;2022-08-21T00:41:59;101161.31;;;19.38;100.00
4972;BME280;2501;51.214;6.768;2022-08-21T00:44:28;101165.72;;;19.39;100.00
4972;BME280;2501;51.214;6.768;2022-08-21T00:46:57;101165.00;;;19.35;100.00
4972;BME280;2501;51.214;6.768;2022-08-21T00:49:25;101165.44;;;19.33;100.00
4972;BME280;2501;51.214;6.768;2022-08-21T00:51:55;101162.44;;;19.24;100.00
4972;BME280;2501;51.214;6.768;2022-08-21T00:54:27;101157.41;;;19.16;100.00
4972;BME280;2501;51.214;6.768;2022-08-21T00:57:03;101151.88;;;19.12;100.00
4972;BME280;2501;51.214;6.768;2022-08-21T00:59:35;101151.31;;;19.01;100.00
4972;BME280;2501;51.214;6.768;2022-08-21T01:02:06;101147.09;;;19.09;100.00
4972;BME280;2501;51.214;6.768;2022-08-21T01:04:35;101152.78;;;19.06;100.00
4972;BME280;2501;51.214;6.768;2022-08-21T01:07:04;72832.00;;;-142.00;100.00
4972;BME280;2501;51.214;6.768;2022-08-21T01:09:33;72832.00;;;-142.00;100.00
4972;BME280;2501;51.214;6.768;2022-08-21T01:12:05;72832.00;;;-142.00;100.00
4972;BME280;2501;51.214;6.768;2022-08-21T01:14:34;72832.00;;;-142.00;100.00
4972;BME280;2501;51.214;6.768;2022-08-21T01:17:04;72832.00;;;-142.00;100.00
4972;BME280;2501;51.214;6.768;2022-08-21T01:19:33;72832.00;;;-142.00;100.00
4972;BME280;2501;51.214;6.768;2022-08-21T01:22:04;72832.00;;;-142.00;100.00
4972;BME280;2501;51.214;6.768;2022-08-21T01:24:32;72832.00;;;-142.00;100.00
4972;BME280;2501;51.214;6.768;2022-08-21T01:27:01;72832.00;;;-142.00;100.00
4972;BME280;2501;51.214;6.768;2022-08-21T01:29:33;72832.00;;;-142.00;100.00
4972;BME280;2501;51.214;6.768;2022-08-21T01:32:06;72832.00;;;-142.00;100.00
4972;BME280;2501;51.214;6.768;2022-08-21T01:34:38;72832.00;;;-142.00;100.00
4972;BME280;2501;51.214;6.768;2022-08-21T01:37:10;72832.00;;;-142.00;100.00
4972;BME280;2501;51.214;6.768;2022-08-21T01:39:39;72832.00;;;-142.00;100.00
4972;BME280;2501;51.214;6.768;2022-08-21T01:42:08;72832.00;;;-142.00;100.00
4972;BME280;2501;51.214;6.768;2022-08-21T01:44:37;72832.00;;;-142.00;100.00
4972;BME280;2501;51.214;6.768;2022-08-21T01:47:09;72832.00;;;-142.00;100.00
4972;BME280;2501;51.214;6.768;2022-08-21T01:49:39;72832.00;;;-142.00;100.00
4972;BME280;2501;51.214;6.768;2022-08-21T01:52:11;72832.00;;;-142.00;100.00
4972;BME280;2501;51.214;6.768;2022-08-21T01:54:41;72832.00;;;-142.00;100.00
4972;BME280;2501;51.214;6.768;2022-08-21T01:57:09;72832.00;;;-142.00;100.00
4972;BME280;2501;51.214;6.768;2022-08-21T01:59:38;72832.00;;;-142.00;100.00
4972;BME280;2501;51.214;6.768;2022-08-21T02:02:07;72832.00;;;-142.00;100.00
4972;BME280;2501;51.214;6.768;2022-08-21T02:04:36;72832.00;;;-142.00;100.00
4972;BME280;2501;51.214;6.768;2022-08-21T02:07:04;72832.00;;;-142.00;100.00
4972;BME280;2501;51.214;6.768;2022-08-21T02:09:35;72832.00;;;-142.00;100.00
4972;BME280;2501;51.214;6.768;2022-08-21T02:12:04;72832.00;;;-142.00;100.00
4972;BME280;2501;51.214;6.768;2022-08-21T02:14:33;72832.00;;;-142.00;100.00
4972;BME280;2501;51.214;6.768;2022-08-21T02:17:02;72832.00;;;-142.00;100.00
4972;BME280;2501;51.214;6.768;2022-08-21T02:19:30;72832.00;;;-142.00;100.00
4972;BME280;2501;51.214;6.768;2022-08-21T02:21:59;72832.00;;;-142.00;100.00
4972;BME280;2501;51.214;6.768;2022-08-21T02:24:27;72832.00;;;-142.00;100.00
4972;BME280;2501;51.214;6.768;2022-08-21T02:26:58;72832.00;;;-142.00;100.00
4972;BME280;2501;51.214;6.768;2022-08-21T02:29:27;72832.00;;;-142.00;100.00
4972;BME280;2501;51.214;6.768;2022-08-21T02:31:55;72832.00;;;-142.00;100.00
4972;BME280;2501;51.214;6.768;2022-08-21T02:34:24;72832.00;;;-142.00;100.00
4972;BME280;2501;51.214;6.768;2022-08-21T02:36:52;72832.00;;;-142.00;100.00
4972;BME280;2501;51.214;6.768;2022-08-21T02:39:21;72832.00;;;-142.00;100.00
4972;BME280;2501;51.214;6.768;2022-08-21T02:41:49;72832.00;;;-142.00;100.00
4972;BME280;2501;51.214;6.768;2022-08-21T02:44:20;72832.00;;;-142.00;100.00
4972;BME280;2501;51.214;6.768;2022-08-21T02:46:48;72832.00;;;-142.00;100.00
4972;BME280;2501;51.214;6.768;2022-08-21T02:49:17;72832.00;;;-142.00;100.00
4972;BME280;2501;51.214;6.768;2022-08-21T02:51:45;72832.00;;;-142.00;100.00
4972;BME280;2501;51.214;6.768;2022-08-21T02:54:14;72832.00;;;-142.00;100.00
4972;BME280;2501;51.214;6.768;2022-08-21T02:56:42;72832.00;;;-142.00;100.00
4972;BME280;2501;51.214;6.768;2022-08-21T02:59:11;72832.00;;;-142.00;100.00
4972;BME280;2501;51.214;6.768;2022-08-21T03:01:42;72832.00;;;-142.00;100.00
4972;BME280;2501;51.214;6.768;2022-08-21T03:04:10;72832.00;;;-142.00;100.00
4972;BME280;2501;51.214;6.768;2022-08-21T03:06:39;72832.00;;;-142.00;100.00
4972;BME280;2501;51.214;6.768;2022-08-21T03:09:08;72832.00;;;-142.00;100.00
4972;BME280;2501;51.214;6.768;2022-08-21T03:11:36;72832.00;;;-142.00;100.00
4972;BME280;2501;51.214;6.768;2022-08-21T03:14:05;72832.00;;;-142.00;100.00
4972;BME280;2501;51.214;6.768;2022-08-21T03:16:33;72832.00;;;-142.00;100.00
4972;BME280;2501;51.214;6.768;2022-08-21T03:19:04;72832.00;;;-142.00;100.00
4972;BME280;2501;51.214;6.768;2022-08-21T03:21:33;72832.00;;;-142.00;100.00
4972;BME280;2501;51.214;6.768;2022-08-21T03:24:01;72832.00;;;-142.00;100.00
4972;BME280;2501;51.214;6.768;2022-08-21T03:26:30;72832.00;;;-142.00;100.00
4972;BME280;2501;51.214;6.768;2022-08-21T03:28:58;72832.00;;;-142.00;100.00
4972;BME280;2501;51.214;6.768;2022-08-21T03:31:27;72832.00;;;-142.00;100.00
4972;BME280;2501;51.214;6.768;2022-08-21T03:33:57;72832.00;;;-142.00;100.00
4972;BME280;2501;51.214;6.768;2022-08-21T03:36:28;72832.00;;;-142.00;100.00
4972;BME280;2501;51.214;6.768;2022-08-21T03:38:56;72832.00;;;-142.00;100.00
4972;BME280;2501;51.214;6.768;2022-08-21T03:41:25;72832.00;;;-142.00;100.00
4972;BME280;2501;51.214;6.768;2022-08-21T03:43:53;72832.00;;;-142.00;100.00
4972;BME280;2501;51.214;6.768;2022-08-21T03:46:22;72832.00;;;-142.00;100.00
4972;BME280;2501;51.214;6.768;2022-08-21T03:48:50;72832.00;;;-142.00;100.00
4972;BME280;2501;51.214;6.768;2022-08-21T03:51:19;72832.00;;;-142.00;100.00
4972;BME280;2501;51.214;6.768;2022-08-21T03:53:50;72832.00;;;-142.00;100.00
4972;BME280;2501;51.214;6.768;2022-08-21T03:56:19;72832.00;;;-142.00;100.00
4972;BME280;2501;51.214;6.768;2022-08-21T03:58:49;72832.00;;;-142.00;100.00
4972;BME280;2501;51.214;6.768;2022-08-21T04:01:17;72832.00;;;-142.00;100.00
4972;BME280;2501;51.214;6.768;2022-08-21T04:03:46;72832.00;;;-142.00;100.00
4972;BME280;2501;51.214;6.768;2022-08-21T04:06:14;72832.00;;;-142.00;100.00
4972;BME280;2501;51.214;6.768;2022-08-21T04:08:43;72832.00;;;-142.00;100.00
4972;BME280;2501;51.214;6.768;2022-08-21T04:11:46;72832.00;;;-142.00;100.00
4972;BME280;2501;51.214;6.768;2022-08-21T04:15:02;72832.00;;;18.29;0.00
4972;BME280;2501;51.214;6.768;2022-08-21T04:17:30;72832.00;;;-142.00;0.00
4972;BME280;2501;51.214;6.768;2022-08-21T04:20:00;72832.00;;;-142.00;0.00
4972;BME280;2501;51.214;6.768;2022-08-21T04:22:28;72832.00;;;-142.00;0.00
4972;BME280;2501;51.214;6.768;2022-08-21T04:24:57;72832.00;;;-142.00;0.00
4972;BME280;2501;51.214;6.768;2022-08-21T04:27:25;72832.00;;;-142.00;0.00
4972;BME280;2501;51.214;6.768;2022-08-21T04:29:53;72832.00;;;-142.00;0.00
4972;BME280;2501;51.214;6.768;2022-08-21T04:32:25;72832.00;;;-142.00;0.00
4972;BME280;2501;51.214;6.768;2022-08-21T04:34:58;72832.00;;;-142.00;0.00
4972;BME280;2501;51.214;6.768;2022-08-21T04:37:27;72832.00;;;-142.00;0.00
4972;BME280;2501;51.214;6.768;2022-08-21T04:39:56;72832.00;;;-142.00;0.00
4972;BME280;2501;51.214;6.768;2022-08-21T04:42:54;101157.47;;;16.66;100.00
4972;BME280;2501;51.214;6.768;2022-08-21T04:45:28;101164.56;;;16.74;100.00
4972;BME280;2501;51.214;6.768;2022-08-21T04:47:59;101169.81;;;16.68;100.00
4972;BME280;2501;51.214;6.768;2022-08-21T04:50:30;101169.81;;;16.68;100.00
4972;BME280;2501;51.214;6.768;2022-08-21T04:53:00;101170.69;;;16.62;100.00
4972;BME280;2501;51.214;6.768;2022-08-21T04:55:28;101170.63;;;16.65;100.00
4972;BME280;2501;51.214;6.768;2022-08-21T04:58:00;101178.19;;;16.68;100.00
4972;BME280;2501;51.214;6.768;2022-08-21T05:00:28;101162.22;;;16.69;100.00
4972;BME280;2501;51.214;6.768;2022-08-21T05:02:59;101173.53;;;16.58;100.00
4972;BME280;2501;51.214;6.768;2022-08-21T05:05:28;101171.34;;;16.73;100.00
4972;BME280;2501;51.214;6.768;2022-08-21T05:07:59;101168.91;;;16.75;100.00
4972;BME280;2501;51.214;6.768;2022-08-21T05:10:29;101172.69;;;16.61;100.00
4972;BME280;2501;51.214;6.768;2022-08-21T05:13:01;101174.59;;;16.68;100.00
4972;BME280;2501;51.214;6.768;2022-08-21T05:15:30;101174.63;;;16.64;100.00
4972;BME280;2501;51.214;6.768;2022-08-21T05:17:59;101171.47;;;16.62;100.00
4972;BME280;2501;51.214;6.768;2022-08-21T05:20:28;101187.06;;;16.60;100.00
4972;BME280;2501;51.214;6.768;2022-08-21T05:22:56;101183.38;;;16.66;100.00
4972;BME280;2501;51.214;6.768;2022-08-21T05:25:25;101185.78;;;16.68;100.00
4972;BME280;2501;51.214;6.768;2022-08-21T05:27:53;101182.50;;;16.76;100.00
4972;BME280;2501;51.214;6.768;2022-08-21T05:30:24;101185.63;;;16.82;100.00
4972;BME280;2501;51.214;6.768;2022-08-21T05:32:56;101189.69;;;16.77;100.00
4972;BME280;2501;51.214;6.768;2022-08-21T05:35:25;101194.34;;;16.87;100.00
4972;BME280;2501;51.214;6.768;2022-08-21T05:37:54;101191.22;;;16.82;100.00
4972;BME280;2501;51.214;6.768;2022-08-21T05:40:23;101190.75;;;16.87;100.00
4972;BME280;2501;51.214;6.768;2022-08-21T05:42:53;101190.75;;;16.87;100.00
4972;BME280;2501;51.214;6.768;2022-08-21T05:45:27;101185.56;;;16.89;100.00
4972;BME280;2501;51.214;6.768;2022-08-21T05:47:56;101192.13;;;16.72;100.00
4972;BME280;2501;51.214;6.768;2022-08-21T05:50:24;101196.41;;;16.83;100.00
4972;BME280;2501;51.214;6.768;2022-08-21T05:52:53;101187.16;;;16.86;100.00
4972;BME280;2501;51.214;6.768;2022-08-21T05:55:21;101189.38;;;17.02;100.00
4972;BME280;2501;51.214;6.768;2022-08-21T05:57:50;101190.47;;;17.12;100.00
4972;BME280;2501;51.214;6.768;2022-08-21T06:00:18;101187.16;;;17.20;100.00
4972;BME280;2501;51.214;6.768;2022-08-21T06:02:51;101188.31;;;17.23;100.00
4972;BME280;2501;51.214;6.768;2022-08-21T06:05:19;101187.28;;;17.10;100.00
4972;BME280;2501;51.214;6.768;2022-08-21T06:07:48;101182.88;;;17.12;100.00
4972;BME280;2501;51.214;6.768;2022-08-21T06:10:17;101186.69;;;17.25;100.00
4972;BME280;2501;51.214;6.768;2022-08-21T06:12:45;101171.91;;;17.25;100.00
4972;BME280;2501;51.214;6.768;2022-08-21T06:15:14;101178.22;;;17.32;100.00
4972;BME280;2501;51.214;6.768;2022-08-21T06:17:42;101183.22;;;17.14;100.00
4972;BME280;2501;51.214;6.768;2022-08-21T06:20:13;101181.81;;;17.29;100.00
4972;BME280;2501;51.214;6.768;2022-08-21T06:22:41;101176.75;;;17.51;100.00
4972;BME280;2501;51.214;6.768;2022-08-21T06:25:10;101174.03;;;17.44;100.00
4972;BME280;2501;51.214;6.768;2022-08-21T06:27:38;101181.25;;;17.41;100.00
4972;BME280;2501;51.214;6.768;2022-08-21T06:30:09;101186.16;;;17.64;100.00
4972;BME280;2501;51.214;6.768;2022-08-21T06:32:37;101182.38;;;17.78;100.00
4972;BME280;2501;51.214;6.768;2022-08-21T06:35:07;101195.16;;;17.48;100.00
4972;BME280;2501;51.214;6.768;2022-08-21T06:37:38;101185.53;;;17.80;100.00
4972;BME280;2501;51.214;6.768;2022-08-21T06:40:08;101204.03;;;17.74;100.00
4972;BME280;2501;51.214;6.768;2022-08-21T06:42:37;101205.19;;;17.76;100.00
4972;BME280;2501;51.214;6.768;2022-08-21T06:45:06;101201.22;;;17.74;100.00
4972;BME280;2501;51.214;6.768;2022-08-21T06:47:34;101194.56;;;17.91;100.00
4972;BME280;2501;51.214;6.768;2022-08-21T06:50:04;101192.56;;;17.91;100.00
4972;BME280;2501;51.214;6.768;2022-08-21T06:52:32;101199.72;;;17.92;100.00
4972;BME280;2501;51.214;6.768;2022-08-21T06:55:07;101201.31;;;17.93;100.00
4972;BME280;2501;51.214;6.768;2022-08-21T06:57:36;101201.72;;;18.19;100.00
4972;BME280;2501;51.214;6.768;2022-08-21T07:00:06;101194.22;;;18.12;100.00
4972;BME280;2501;51.214;6.768;2022-08-21T07:02:35;101194.28;;;18.09;100.00
4972;BME280;2501;51.214;6.768;2022-08-21T07:05:05;101195.00;;;18.36;100.00
4972;BME280;2501;51.214;6.768;2022-08-21T07:07:33;101198.91;;;18.42;100.00
4972;BME280;2501;51.214;6.768;2022-08-21T07:10:05;101195.09;;;18.75;100.00
4972;BME280;2501;51.214;6.768;2022-08-21T07:12:33;101202.56;;;18.62;100.00
4972;BME280;2501;51.214;6.768;2022-08-21T07:15:03;101206.22;;;18.59;100.00
4972;BME280;2501;51.214;6.768;2022-08-21T07:17:31;101205.84;;;18.80;100.00
4972;BME280;2501;51.214;6.768;2022-08-21T07:20:00;101203.44;;;18.79;100.00
4972;BME280;2501;51.214;6.768;2022-08-21T07:22:28;101208.41;;;18.71;100.00
4972;BME280;2501;51.214;6.768;2022-08-21T07:24:56;101202.97;;;18.84;100.00
4972;BME280;2501;51.214;6.768;2022-08-21T07:27:28;101201.38;;;18.83;100.00
4972;BME280;2501;51.214;6.768;2022-08-21T07:29:57;101208.16;;;18.85;100.00
4972;BME280;2501;51.214;6.768;2022-08-21T07:32:25;101213.53;;;18.76;100.00
4972;BME280;2501;51.214;6.768;2022-08-21T07:34:54;101205.94;;;18.97;100.00
4972;BME280;2501;51.214;6.768;2022-08-21T07:37:22;101210.09;;;19.08;100.00
4972;BME280;2501;51.214;6.768;2022-08-21T07:39:51;101209.56;;;19.13;100.00
4972;BME280;2501;51.214;6.768;2022-08-21T07:42:19;101206.75;;;19.13;100.00
4972;BME280;2501;51.214;6.768;2022-08-21T07:44:51;101205.63;;;19.30;100.00
4972;BME280;2501;51.214;6.768;2022-08-21T07:47:19;101205.91;;;19.36;100.00
4972;BME280;2501;51.214;6.768;2022-08-21T07:49:48;101228.22;;;19.63;100.00
4972;BME280;2501;51.214;6.768;2022-08-21T07:52:16;101217.94;;;19.72;100.00
4972;BME280;2501;51.214;6.768;2022-08-21T07:54:45;101223.94;;;19.74;100.00
4972;BME280;2501;51.214;6.768;2022-08-21T07:57:13;101213.94;;;20.06;100.00
4972;BME280;2501;51.214;6.768;2022-08-21T07:59:42;101211.75;;;20.13;100.00
4972;BME280;2501;51.214;6.768;2022-08-21T08:02:21;101209.47;;;20.41;100.00
4972;BME280;2501;51.214;6.768;2022-08-21T08:04:50;101203.34;;;20.29;100.00
4972;BME280;2501;51.214;6.768;2022-08-21T08:07:19;101209.19;;;20.51;100.00
4972;BME280;2501;51.214;6.768;2022-08-21T08:09:47;101207.38;;;20.45;100.00
4972;BME280;2501;51.214;6.768;2022-08-21T08:12:16;101199.25;;;20.63;100.00
4972;BME280;2501;51.214;6.768;2022-08-21T08:14:45;101208.13;;;20.61;100.00
4972;BME280;2501;51.214;6.768;2022-08-21T08:17:16;101196.63;;;20.56;100.00
4972;BME280;2501;51.214;6.768;2022-08-21T08:19:48;101201.09;;;20.69;100.00
4972;BME280;2501;51.214;6.768;2022-08-21T08:22:19;101196.75;;;20.81;100.00
4972;BME280;2501;51.214;6.768;2022-08-21T08:24:49;101199.72;;;20.74;100.00
4972;BME280;2501;51.214;6.768;2022-08-21T08:27:19;101206.16;;;21.03;100.00
4972;BME280;2501;51.214;6.768;2022-08-21T08:29:48;101209.66;;;20.78;100.00
4972;BME280;2501;51.214;6.768;2022-08-21T08:32:19;101208.66;;;21.01;100.00
4972;BME280;2501;51.214;6.768;2022-08-21T08:34:48;101211.97;;;21.12;100.00
4972;BME280;2501;51.214;6.768;2022-08-21T08:37:18;101212.81;;;21.38;100.00
4972;BME280;2501;51.214;6.768;2022-08-21T08:39:48;101210.81;;;21.77;100.00
4972;BME280;2501;51.214;6.768;2022-08-21T08:42:25;101213.75;;;21.86;100.00
4972;BME280;2501;51.214;6.768;2022-08-21T08:44:57;101213.13;;;21.28;100.00
4972;BME280;2501;51.214;6.768;2022-08-21T08:47:31;101208.97;;;21.03;100.00
4972;BME280;2501;51.214;6.768;2022-08-21T08:50:05;101205.91;;;21.27;100.00
4972;BME280;2501;51.214;6.768;2022-08-21T08:52:39;101200.88;;;21.47;100.00
4972;BME280;2501;51.214;6.768;2022-08-21T08:55:13;101203.63;;;22.01;100.00
4972;BME280;2501;51.214;6.768;2022-08-21T08:57:46;101201.34;;;21.96;100.00
4972;BME280;2501;51.214;6.768;2022-08-21T09:00:19;101197.66;;;21.99;100.00
4972;BME280;2501;51.214;6.768;2022-08-21T09:02:53;101196.06;;;21.98;100.00
4972;BME280;2501;51.214;6.768;2022-08-21T09:05:25;101193.03;;;21.92;100.00
4972;BME280;2501;51.214;6.768;2022-08-21T09:11:00;101191.31;;;21.82;100.00
4972;BME280;2501;51.214;6.768;2022-08-21T09:13:36;101193.47;;;21.91;100.00
4972;BME280;2501;51.214;6.768;2022-08-21T09:16:13;101181.38;;;22.15;100.00
4972;BME280;2501;51.214;6.768;2022-08-21T09:18:55;101193.44;;;22.03;100.00
4972;BME280;2501;51.214;6.768;2022-08-21T09:21:34;101192.31;;;22.13;100.00
4972;BME280;2501;51.214;6.768;2022-08-21T09:24:18;101184.16;;;22.28;100.00
4972;BME280;2501;51.214;6.768;2022-08-21T09:26:57;101184.63;;;22.27;100.00
4972;BME280;2501;51.214;6.768;2022-08-21T09:29:30;101186.47;;;22.08;100.00
4972;BME280;2501;51.214;6.768;2022-08-21T09:32:00;101180.06;;;21.95;100.00
4972;BME280;2501;51.214;6.768;2022-08-21T09:34:31;101180.09;;;22.29;100.00
4972;BME280;2501;51.214;6.768;2022-08-21T09:37:00;101187.28;;;22.43;100.00
4972;BME280;2501;51.214;6.768;2022-08-21T09:39:30;101184.72;;;22.23;100.00
4972;BME280;2501;51.214;6.768;2022-08-21T09:42:02;101183.06;;;22.26;100.00
4972;BME280;2501;51.214;6.768;2022-08-21T09:44:33;101183.72;;;22.30;100.00
4972;BME280;2501;51.214;6.768;2022-08-21T09:47:05;101191.16;;;22.36;100.00
4972;BME280;2501;51.214;6.768;2022-08-21T09:49:39;101177.53;;;22.56;100.00
4972;BME280;2501;51.214;6.768;2022-08-21T09:52:16;101178.22;;;22.60;100.00
4972;BME280;2501;51.214;6.768;2022-08-21T09:54:50;101182.97;;;22.51;100.00
4972;BME280;2501;51.214;6.768;2022-08-21T09:57:23;101170.34;;;22.43;100.00
4972;BME280;2501;51.214;6.768;2022-08-21T10:00:11;101177.94;;;22.46;100.00
4972;BME280;2501;51.214;6.768;2022-08-21T10:02:43;101173.72;;;22.50;100.00
4972;BME280;2501;51.214;6.768;2022-08-21T10:05:20;101169.72;;;22.95;100.00
4972;BME280;2501;51.214;6.768;2022-08-21T10:07:50;101171.09;;;22.90;100.00
4972;BME280;2501;51.214;6.768;2022-08-21T10:10:21;101168.91;;;22.94;100.00
4972;BME280;2501;51.214;6.768;2022-08-21T10:12:53;101161.34;;;23.13;100.00
4972;BME280;2501;51.214;6.768;2022-08-21T10:15:38;101158.81;;;23.37;100.00
4972;BME280;2501;51.214;6.768;2022-08-21T10:18:14;101154.81;;;23.25;100.00
4972;BME280;2501;51.214;6.768;2022-08-21T10:20:54;101159.50;;;23.81;100.00
4972;BME280;2501;51.214;6.768;2022-08-21T10:23:39;101142.78;;;23.34;100.00
4972;BME280;2501;51.214;6.768;2022-08-21T10:26:25;101154.00;;;23.77;100.00
4972;BME280;2501;51.214;6.768;2022-08-21T10:29:01;101146.75;;;23.76;100.00
4972;BME280;2501;51.214;6.768;2022-08-21T10:31:37;101150.59;;;23.91;100.00
4972;BME280;2501;51.214;6.768;2022-08-21T10:34:21;101143.13;;;24.16;100.00
4972;BME280;2501;51.214;6.768;2022-08-21T10:37:01;101137.31;;;24.28;100.00
4972;BME280;2501;51.214;6.768;2022-08-21T10:39:35;101143.59;;;24.14;100.00
4972;BME280;2501;51.214;6.768;2022-08-21T10:42:28;101139.94;;;24.04;100.00
4972;BME280;2501;51.214;6.768;2022-08-21T10:45:10;101153.88;;;23.90;100.00
4972;BME280;2501;51.214;6.768;2022-08-21T10:47:46;101144.91;;;23.42;100.00
4972;BME280;2501;51.214;6.768;2022-08-21T10:50:23;101140.59;;;23.69;100.00
4972;BME280;2501;51.214;6.768;2022-08-21T10:53:19;101134.53;;;23.88;100.00
4972;BME280;2501;51.214;6.768;2022-08-21T10:55:54;101139.28;;;23.91;100.00
4972;BME280;2501;51.214;6.768;2022-08-21T10:58:28;101138.66;;;23.96;100.00
4972;BME280;2501;51.214;6.768;2022-08-21T11:00:58;101136.91;;;23.90;100.00
4972;BME280;2501;51.214;6.768;2022-08-21T11:03:34;101134.88;;;23.99;100.00
4972;BME280;2501;51.214;6.768;2022-08-21T11:06:06;101137.78;;;24.27;100.00
4972;BME280;2501;51.214;6.768;2022-08-21T11:08:44;101137.00;;;24.35;100.00
4972;BME280;2501;51.214;6.768;2022-08-21T11:11:18;101136.88;;;24.57;100.00
4972;BME280;2501;51.214;6.768;2022-08-21T11:13:51;101142.03;;;24.77;100.00
4972;BME280;2501;51.214;6.768;2022-08-21T11:16:25;101144.41;;;24.33;100.00
4972;BME280;2501;51.214;6.768;2022-08-21T11:19:02;101142.97;;;24.19;100.00
4972;BME280;2501;51.214;6.768;2022-08-21T11:21:38;101135.38;;;24.07;100.00
4972;BME280;2501;51.214;6.768;2022-08-21T11:24:20;101132.06;;;24.09;100.00
4972;BME280;2501;51.214;6.768;2022-08-21T11:26:56;101136.22;;;24.26;100.00
4972;BME280;2501;51.214;6.768;2022-08-21T11:29:28;101133.06;;;24.24;100.00
4972;BME280;2501;51.214;6.768;2022-08-21T11:32:09;101127.66;;;23.98;100.00
4972;BME280;2501;51.214;6.768;2022-08-21T11:34:48;101131.34;;;24.17;100.00
4972;BME280;2501;51.214;6.768;2022-08-21T11:37:27;101128.53;;;24.44;100.00
4972;BME280;2501;51.214;6.768;2022-08-21T11:40:12;101125.53;;;24.39;100.00
4972;BME280;2501;51.214;6.768;2022-08-21T11:42:52;101128.94;;;24.07;100.00
4972;BME280;2501;51.214;6.768;2022-08-21T11:45:29;101132.13;;;24.27;100.00
4972;BME280;2501;51.214;6.768;2022-08-21T11:48:09;101133.38;;;24.35;100.00
4972;BME280;2501;51.214;6.768;2022-08-21T11:50:43;101123.16;;;24.65;100.00
4972;BME280;2501;51.214;6.768;2022-08-21T11:53:15;101136.38;;;24.68;100.00
4972;BME280;2501;51.214;6.768;2022-08-21T11:55:50;101124.75;;;24.66;100.00
4972;BME280;2501;51.214;6.768;2022-08-21T11:58:25;101126.13;;;24.70;100.00
4972;BME280;2501;51.214;6.768;2022-08-21T12:00:58;101130.22;;;24.78;100.00
4972;BME280;2501;51.214;6.768;2022-08-21T12:03:31;101119.06;;;24.75;99.10
4972;BME280;2501;51.214;6.768;2022-08-21T12:06:03;101116.38;;;24.62;100.00
4972;BME280;2501;51.214;6.768;2022-08-21T12:08:35;101118.41;;;25.07;97.45
4972;BME280;2501;51.214;6.768;2022-08-21T12:11:09;101116.81;;;25.06;97.33
4972;BME280;2501;51.214;6.768;2022-08-21T12:13:40;101114.41;;;25.23;95.94
4972;BME280;2501;51.214;6.768;2022-08-21T12:16:30;101117.59;;;25.16;96.17
4972;BME280;2501;51.214;6.768;2022-08-21T12:19:03;101116.28;;;25.26;91.06
4972;BME280;2501;51.214;6.768;2022-08-21T12:21:33;101116.22;;;24.84;88.87
4972;BME280;2501;51.214;6.768;2022-08-21T12:24:19;101112.31;;;24.81;89.89
4972;BME280;2501;51.214;6.768;2022-08-21T12:26:52;101110.91;;;24.49;97.52
4972;BME280;2501;51.214;6.768;2022-08-21T12:29:23;101103.16;;;24.95;97.41
4972;BME280;2501;51.214;6.768;2022-08-21T12:31:57;101109.28;;;25.12;96.33
4972;BME280;2501;51.214;6.768;2022-08-21T12:34:34;101104.22;;;25.07;98.45
4972;BME280;2501;51.214;6.768;2022-08-21T12:37:05;101099.97;;;25.54;94.29
4972;BME280;2501;51.214;6.768;2022-08-21T12:39:38;101106.16;;;25.01;93.63
4972;BME280;2501;51.214;6.768;2022-08-21T12:42:16;101107.78;;;25.26;91.57
4972;BME280;2501;51.214;6.768;2022-08-21T12:44:50;101109.16;;;25.39;90.15
4972;BME280;2501;51.214;6.768;2022-08-21T12:47:27;101107.97;;;25.22;87.61
4972;BME280;2501;51.214;6.768;2022-08-21T12:50:00;101107.13;;;25.40;87.46
4972;BME280;2501;51.214;6.768;2022-08-21T12:52:32;101106.22;;;25.67;86.15
4972;BME280;2501;51.214;6.768;2022-08-21T12:55:01;101107.50;;;25.66;87.40
4972;BME280;2501;51.214;6.768;2022-08-21T12:57:35;101100.34;;;25.37;89.45
4972;BME280;2501;51.214;6.768;2022-08-21T13:00:07;101100.34;;;25.37;90.48
4972;BME280;2501;51.214;6.768;2022-08-21T13:02:39;101100.88;;;25.27;88.94
4972;BME280;2501;51.214;6.768;2022-08-21T13:05:13;101103.16;;;25.47;88.55
4972;BME280;2501;51.214;6.768;2022-08-21T13:07:45;101098.16;;;25.74;88.77
4972;BME280;2501;51.214;6.768;2022-08-21T13:10:18;101107.75;;;25.77;88.94
4972;BME280;2501;51.214;6.768;2022-08-21T13:12:50;101096.09;;;25.99;85.52
4972;BME280;2501;51.214;6.768;2022-08-21T13:15:28;101090.91;;;25.97;84.62
4972;BME280;2501;51.214;6.768;2022-08-21T13:17:57;101096.72;;;25.79;87.43
4972;BME280;2501;51.214;6.768;2022-08-21T13:20:29;101087.34;;;26.88;80.59
4972;BME280;2501;51.214;6.768;2022-08-21T13:23:00;101086.66;;;26.93;76.33
4972;BME280;2501;51.214;6.768;2022-08-21T13:25:35;101082.03;;;27.10;73.36
4972;BME280;2501;51.214;6.768;2022-08-21T13:28:09;101096.19;;;26.66;74.07